Time,TemperatureF,DewpointF,PressureIn,WindDirection,WindDirectionDegrees,WindSpeedMPH,WindSpeedGustMPH,Humidity,HourlyPrecipIn,Conditions,Clouds,dailyrainin,SolarRadiationWatts/m^2,SoftwareType,DateUTC
2013-03-10 00:06:00,24.2,22.2,29.98,NNW,327,0.0,0.0,92,0.00,,,0.00,0,Wunderground v.1.15,2013-03-10 07:06:00,
2013-03-10 00:13:00,24.2,22.2,29.98,NNW,327,0.0,0.0,92,0.00,,,0.00,0,Wunderground v.1.15,2013-03-10 07:13:00,
2013-03-10 00:19:00,24.2,22.2,29.99,NNW,327,0.0,0.0,92,0.00,,,0.00,0,Wunderground v.1.15,2013-03-10 07:19:00,
2013-03-10 00:26:00,24.2,22.2,29.99,NNW,327,0.0,0.0,92,0.00,,,0.00,0,Wunderground v.1.15,2013-03-10 07:26:00,
2013-03-10 00:31:00,24.1,22.1,29.99,NNW,327,0.0,0.0,92,0.00,,,0.00,0,Wunderground v.1.15,2013-03-10 07:31:00,
2013-03-10 00:37:00,24.1,22.1,29.99,NNW,327,0.0,0.0,92,0.00,,,0.00,0,Wunderground v.1.15,2013-03-10 07:37:00,
2013-03-10 00:43:00,24.1,22.1,29.99,NNW,327,0.0,0.0,92,0.00,,,0.00,0,Wunderground v.1.15,2013-03-10 07:43:00,
2013-03-10 00:49:00,23.9,21.9,30.00,NNW,327,0.0,0.0,92,0.00,,,0.00,0,Wunderground v.1.15,2013-03-10 07:49:00,
2013-03-10 00:54:00,23.6,21.6,30.00,NNW,327,0.0,0.0,92,0.00,,,0.00,0,Wunderground v.1.15,2013-03-10 07:54:00,
2013-03-10 01:00:00,23.3,21.1,30.00,NNW,327,0.0,0.0,91,0.00,,,0.00,0,Wunderground v.1.15,2013-03-10 08:00:00,
2013-03-10 01:06:00,23.0,20.8,30.00,NNW,327,0.0,0.0,91,0.00,,,0.00,0,Wunderground v.1.15,2013-03-10 08:06:00,
2013-03-10 01:13:00,22.5,20.3,30.00,NNW,327,0.0,0.0,91,0.00,,,0.00,0,Wunderground v.1.15,2013-03-10 08:13:00,
2013-03-10 01:18:00,22.2,19.7,30.01,NNW,327,0.0,0.0,90,0.00,,,0.00,0,Wunderground v.1.15,2013-03-10 08:18:00,
2013-03-10 01:24:00,21.6,19.1,30.01,NNW,327,0.0,0.0,90,0.00,,,0.00,0,Wunderground v.1.15,2013-03-10 08:24:00,
2013-03-10 01:30:00,20.8,18.1,30.02,NNW,327,0.0,0.0,89,0.00,,,0.00,0,Wunderground v.1.15,2013-03-10 08:30:00,
2013-03-10 01:36:00,19.7,17.0,30.02,NNW,327,0.0,0.0,89,0.00,,,0.00,0,Wunderground v.1.15,2013-03-10 08:36:00,
2013-03-10 01:43:00,18.4,15.2,30.02,NNW,327,0.0,0.0,87,0.00,,,0.00,0,Wunderground v.1.15,2013-03-10 08:43:00,
2013-03-10 01:48:00,17.7,14.5,30.02,NNW,327,0.0,0.0,87,0.00,,,0.00,0,Wunderground v.1.15,2013-03-10 08:48:00,
2013-03-10 01:53:00,17.0,13.8,30.02,NNW,327,0.0,0.0,87,0.00,,,0.00,0,Wunderground v.1.15,2013-03-10 08:53:00,
2013-03-10 01:59:00,16.4,13.2,30.02,NNW,327,0.0,0.0,87,0.00,,,0.00,0,Wunderground v.1.15,2013-03-10 08:59:00,
2013-03-10 03:04:00,15.9,12.5,30.03,NNW,327,0.0,0.0,86,0.00,,,0.00,0,Wunderground v.1.15,2013-03-10 09:04:00,
2013-03-10 03:09:00,15.2,11.8,30.03,NNW,327,0.0,0.0,86,0.00,,,0.00,0,Wunderground v.1.15,2013-03-10 09:09:00,
2013-03-10 03:14:00,14.9,11.5,30.03,NNW,327,0.0,0.0,86,0.00,,,0.00,0,Wunderground v.1.15,2013-03-10 09:14:00,
2013-03-10 03:19:00,14.4,11.0,30.03,NNW,327,0.0,0.0,86,0.00,,,0.00,0,Wunderground v.1.15,2013-03-10 09:19:00,
2013-03-10 03:24:00,14.0,10.3,30.03,NNW,327,0.0,0.0,85,0.00,,,0.00,0,Wunderground v.1.15,2013-03-10 09:24:00,
2013-03-10 03:29:00,13.5,9.8,30.03,NNW,327,0.0,0.0,85,0.00,,,0.00,0,Wunderground v.1.15,2013-03-10 09:29:00,
2013-03-10 03:34:00,12.8,8.9,30.05,NNW,327,0.0,0.0,84,0.00,,,0.00,0,Wunderground v.1.15,2013-03-10 09:34:00,
2013-03-10 03:39:00,12.1,7.9,30.05,NNW,327,0.0,0.0,83,0.00,,,0.00,0,Wunderground v.1.15,2013-03-10 09:39:00,
2013-03-10 03:44:00,11.2,7.0,30.05,NNW,327,0.0,0.0,83,0.00,,,0.00,0,Wunderground v.1.15,2013-03-10 09:44:00,
2013-03-10 03:49:00,10.9,6.8,30.05,NNW,327,0.0,0.0,83,0.00,,,0.00,0,Wunderground v.1.15,2013-03-10 09:49:00,
2013-03-10 03:54:00,10.2,5.8,30.05,NNW,327,0.0,0.0,82,0.00,,,0.00,0,Wunderground v.1.15,2013-03-10 09:54:00,
2013-03-10 03:59:00,9.7,5.3,30.05,NNW,327,0.0,0.0,82,0.00,,,0.00,0,Wunderground v.1.15,2013-03-10 09:59:00,
2013-03-10 04:04:00,9.2,4.8,30.05,NNW,327,0.0,0.0,82,0.00,,,0.00,0,Wunderground v.1.15,2013-03-10 10:04:00,
2013-03-10 04:09:00,8.8,4.4,30.05,NNW,327,0.0,0.0,82,0.00,,,0.00,0,Wunderground v.1.15,2013-03-10 10:09:00,
2013-03-10 04:14:00,8.6,4.5,30.05,NNW,327,0.0,0.0,83,0.00,,,0.00,0,Wunderground v.1.15,2013-03-10 10:14:00,
2013-03-10 04:19:00,8.4,4.3,30.06,NNW,327,0.0,0.0,83,0.00,,,0.00,0,Wunderground v.1.15,2013-03-10 10:19:00,
2013-03-10 04:24:00,8.3,4.2,30.06,NNW,327,0.0,0.0,83,0.00,,,0.00,0,Wunderground v.1.15,2013-03-10 10:24:00,
2013-03-10 04:29:00,8.3,4.2,30.06,NNW,327,0.0,0.0,83,0.00,,,0.00,0,Wunderground v.1.15,2013-03-10 10:29:00,
2013-03-10 04:34:00,8.3,4.2,30.07,NNW,327,0.0,0.0,83,0.00,,,0.00,0,Wunderground v.1.15,2013-03-10 10:34:00,
2013-03-10 04:39:00,8.1,4.0,30.07,NNW,327,0.0,0.0,83,0.00,,,0.00,0,Wunderground v.1.15,2013-03-10 10:39:00,
2013-03-10 04:44:00,7.9,3.8,30.07,NNW,327,0.0,0.0,83,0.00,,,0.00,0,Wunderground v.1.15,2013-03-10 10:44:00,
2013-03-10 04:49:00,7.7,3.4,30.07,NNW,327,0.0,0.0,82,0.00,,,0.00,0,Wunderground v.1.15,2013-03-10 10:49:00,
2013-03-10 04:54:00,7.6,3.3,30.07,NNW,327,0.0,0.0,82,0.00,,,0.00,0,Wunderground v.1.15,2013-03-10 10:54:00,
2013-03-10 04:59:00,7.4,3.1,30.08,NNW,327,0.0,0.0,82,0.00,,,0.00,0,Wunderground v.1.15,2013-03-10 10:59:00,
2013-03-10 05:04:00,7.4,3.1,30.08,NNW,327,0.0,0.0,82,0.00,,,0.00,0,Wunderground v.1.15,2013-03-10 11:04:00,
2013-03-10 05:09:00,7.2,2.9,30.08,NNW,327,0.0,0.0,82,0.00,,,0.00,0,Wunderground v.1.15,2013-03-10 11:09:00,
2013-03-10 05:15:00,7.0,2.7,30.09,NNW,327,0.0,0.0,82,0.00,,,0.00,0,Wunderground v.1.15,2013-03-10 11:15:00,
2013-03-10 05:20:00,6.7,2.4,30.09,NNW,327,0.0,0.0,82,0.00,,,0.00,0,Wunderground v.1.15,2013-03-10 11:20:00,
2013-03-10 05:25:00,6.5,2.2,30.09,NNW,327,0.0,0.0,82,0.00,,,0.00,0,Wunderground v.1.15,2013-03-10 11:25:00,
2013-03-10 05:30:00,6.3,2.0,30.11,NNW,327,0.0,0.0,82,0.00,,,0.00,0,Wunderground v.1.15,2013-03-10 11:30:00,
2013-03-10 05:35:00,6.1,1.8,30.11,NNW,327,0.0,0.0,82,0.00,,,0.00,0,Wunderground v.1.15,2013-03-10 11:35:00,
2013-03-10 05:40:00,6.0,1.7,30.11,NNW,327,0.0,0.0,82,0.00,,,0.00,0,Wunderground v.1.15,2013-03-10 11:40:00,
2013-03-10 05:45:00,5.6,1.0,30.11,NNW,327,0.0,0.0,81,0.00,,,0.00,0,Wunderground v.1.15,2013-03-10 11:45:00,
2013-03-10 05:50:00,5.2,0.6,30.11,NNW,327,0.0,0.0,81,0.00,,,0.00,0,Wunderground v.1.15,2013-03-10 11:50:00,
2013-03-10 05:55:00,4.8,0.0,30.11,NNW,327,0.0,0.0,80,0.00,,,0.00,0,Wunderground v.1.15,2013-03-10 11:55:00,
2013-03-10 06:00:00,4.3,-0.8,30.12,NNW,327,0.0,0.0,79,0.00,,,0.00,0,Wunderground v.1.15,2013-03-10 12:00:00,
2013-03-10 06:05:00,3.7,-1.6,30.12,NNW,327,0.0,0.0,78,0.00,,,0.00,0,Wunderground v.1.15,2013-03-10 12:05:00,
2013-03-10 06:10:00,3.4,-1.9,30.12,NNW,327,0.0,0.0,78,0.00,,,0.00,0,Wunderground v.1.15,2013-03-10 12:10:00,
2013-03-10 06:16:00,3.0,-2.0,30.13,NNW,327,0.0,0.0,79,0.00,,,0.00,0,Wunderground v.1.15,2013-03-10 12:16:00,
2013-03-10 06:21:00,3.0,-1.8,30.13,NNW,327,0.0,0.0,80,0.00,,,0.00,0,Wunderground v.1.15,2013-03-10 12:21:00,
2013-03-10 06:26:00,3.4,-1.1,30.13,NNW,327,0.0,0.0,81,0.00,,,0.00,0,Wunderground v.1.15,2013-03-10 12:26:00,
2013-03-10 06:31:00,3.7,-0.6,30.14,NNW,327,0.0,0.0,82,0.00,,,0.00,0,Wunderground v.1.15,2013-03-10 12:31:00,
2013-03-10 06:36:00,4.3,0.3,30.14,NNW,327,0.0,0.0,83,0.00,,,0.00,0,Wunderground v.1.15,2013-03-10 12:36:00,
2013-03-10 06:41:00,4.7,0.7,30.14,NNW,327,0.0,0.0,83,0.00,,,0.00,0,Wunderground v.1.15,2013-03-10 12:41:00,
2013-03-10 06:47:00,5.0,1.0,30.14,NNW,327,0.0,0.0,83,0.00,,,0.00,0,Wunderground v.1.15,2013-03-10 12:47:00,
2013-03-10 06:52:00,5.4,1.4,30.14,NNW,327,0.0,0.0,83,0.00,,,0.00,0,Wunderground v.1.15,2013-03-10 12:52:00,
2013-03-10 06:57:00,5.4,1.1,30.14,NNW,327,0.0,0.0,82,0.00,,,0.00,0,Wunderground v.1.15,2013-03-10 12:57:00,
2013-03-10 07:02:00,5.6,1.3,30.15,NNW,327,0.0,0.0,82,0.00,,,0.00,0,Wunderground v.1.15,2013-03-10 13:02:00,
2013-03-10 07:07:00,5.6,1.3,30.15,NNW,327,0.0,0.0,82,0.00,,,0.00,0,Wunderground v.1.15,2013-03-10 13:07:00,
2013-03-10 07:13:00,5.4,0.8,30.15,NNW,327,0.0,0.0,81,0.00,,,0.00,0,Wunderground v.1.15,2013-03-10 13:13:00,
2013-03-10 07:18:00,5.0,0.4,30.16,NNW,327,0.0,0.0,81,0.00,,,0.00,0,Wunderground v.1.15,2013-03-10 13:18:00,
2013-03-10 07:23:00,4.8,0.2,30.16,NNW,327,0.0,0.0,81,0.00,,,0.00,0,Wunderground v.1.15,2013-03-10 13:23:00,
2013-03-10 07:28:00,4.7,0.2,30.16,NNW,327,0.0,0.0,81,0.00,,,0.00,7,Wunderground v.1.15,2013-03-10 13:28:00,
2013-03-10 07:33:00,4.3,-0.5,30.17,NNW,327,0.0,0.0,80,0.00,,,0.00,19,Wunderground v.1.15,2013-03-10 13:33:00,
2013-03-10 07:38:00,3.9,-1.2,30.17,NNW,327,0.0,0.0,79,0.00,,,0.00,28,Wunderground v.1.15,2013-03-10 13:38:00,
2013-03-10 07:43:00,3.7,-1.1,30.17,NNW,327,0.0,0.0,80,0.00,,,0.00,40,Wunderground v.1.15,2013-03-10 13:43:00,
2013-03-10 07:48:00,3.7,-1.1,30.17,NNW,327,0.0,0.0,80,0.00,,,0.00,49,Wunderground v.1.15,2013-03-10 13:48:00,
2013-03-10 07:54:00,4.3,0.0,30.17,NNW,327,0.0,0.0,82,0.00,,,0.00,62,Wunderground v.1.15,2013-03-10 13:54:00,
2013-03-10 07:59:00,4.8,0.5,30.17,NNW,327,0.0,0.0,82,0.00,,,0.00,74,Wunderground v.1.15,2013-03-10 13:59:00,
2013-03-10 08:04:00,5.4,1.4,30.19,NNW,327,0.0,0.0,83,0.00,,,0.00,81,Wunderground v.1.15,2013-03-10 14:04:00,
2013-03-10 08:08:00,5.8,1.8,30.19,NNW,327,0.0,0.0,83,0.00,,,0.00,91,Wunderground v.1.15,2013-03-10 14:08:00,
2013-03-10 08:13:00,6.1,2.0,30.19,NNW,327,0.0,0.0,83,0.00,,,0.00,98,Wunderground v.1.15,2013-03-10 14:13:00,
2013-03-10 08:19:00,6.7,2.9,30.19,NNW,327,0.0,0.0,84,0.00,,,0.00,105,Wunderground v.1.15,2013-03-10 14:19:00,
2013-03-10 08:24:00,7.2,3.4,30.19,NNW,327,0.0,0.0,84,0.00,,,0.00,113,Wunderground v.1.15,2013-03-10 14:24:00,
2013-03-10 08:29:00,7.7,3.9,30.19,NNW,327,0.0,0.0,84,0.00,,,0.00,120,Wunderground v.1.15,2013-03-10 14:29:00,
2013-03-10 08:34:00,8.3,4.7,30.20,NNW,327,0.0,0.0,85,0.00,,,0.00,127,Wunderground v.1.15,2013-03-10 14:34:00,
2013-03-10 08:39:00,9.2,5.9,30.20,NNW,327,0.0,0.0,86,0.00,,,0.00,135,Wunderground v.1.15,2013-03-10 14:39:00,
2013-03-10 08:44:00,10.0,6.6,30.20,NNW,327,0.0,0.0,86,0.00,,,0.00,156,Wunderground v.1.15,2013-03-10 14:44:00,
2013-03-10 08:49:00,11.2,8.1,30.20,NNW,327,0.0,0.0,87,0.00,,,0.00,171,Wunderground v.1.15,2013-03-10 14:49:00,
2013-03-10 08:54:00,12.4,9.5,30.20,NNW,327,0.0,0.0,88,0.00,,,0.00,171,Wunderground v.1.15,2013-03-10 14:54:00,
2013-03-10 08:59:00,13.3,10.4,30.20,NNW,327,0.0,0.0,88,0.00,,,0.00,171,Wunderground v.1.15,2013-03-10 14:59:00,
2013-03-10 09:04:00,14.0,10.8,30.20,NNW,327,0.0,0.0,87,0.00,,,0.00,169,Wunderground v.1.15,2013-03-10 15:04:00,
2013-03-10 09:09:00,14.8,11.9,30.20,NNW,327,0.0,0.0,88,0.00,,,0.00,176,Wunderground v.1.15,2013-03-10 15:09:00,
2013-03-10 09:14:00,15.4,12.5,30.20,NNW,327,0.0,0.0,88,0.00,,,0.00,202,Wunderground v.1.15,2013-03-10 15:14:00,
2013-03-10 09:19:00,16.1,13.2,30.21,NNW,327,0.0,0.0,88,0.00,,,0.00,369,Wunderground v.1.15,2013-03-10 15:19:00,
2013-03-10 09:24:00,16.9,14.0,30.21,NNW,327,0.0,0.0,88,0.00,,,0.01,520,Wunderground v.1.15,2013-03-10 15:24:00,
2013-03-10 09:29:00,17.5,14.8,30.21,NNW,327,0.0,0.0,89,0.00,,,0.01,571,Wunderground v.1.15,2013-03-10 15:29:00,
2013-03-10 09:34:00,18.3,15.6,30.21,NNW,327,0.0,0.0,89,0.00,,,0.01,615,Wunderground v.1.15,2013-03-10 15:34:00,
2013-03-10 09:39:00,19.2,16.2,30.21,NNW,327,0.0,0.0,88,0.04,,,0.02,636,Wunderground v.1.15,2013-03-10 15:39:00,
2013-03-10 09:44:00,19.9,16.7,30.21,NNW,327,0.0,0.0,87,0.04,,,0.02,650,Wunderground v.1.15,2013-03-10 15:44:00,
2013-03-10 09:49:00,20.3,17.0,30.21,NNW,327,0.0,0.0,87,0.04,,,0.02,654,Wunderground v.1.15,2013-03-10 15:49:00,
2013-03-10 09:54:00,20.5,17.0,30.21,NNW,327,0.0,0.0,86,0.00,,,0.02,663,Wunderground v.1.15,2013-03-10 15:54:00,
2013-03-10 10:00:00,20.8,17.3,30.22,NNW,327,0.0,0.0,86,0.00,,,0.03,656,Wunderground v.1.15,2013-03-10 16:00:00,
2013-03-10 10:05:00,21.1,17.8,30.22,NNW,327,0.0,0.0,87,0.00,,,0.03,675,Wunderground v.1.15,2013-03-10 16:05:00,
2013-03-10 10:10:00,21.4,18.1,30.22,NNW,327,0.0,0.0,87,0.00,,,0.03,691,Wunderground v.1.15,2013-03-10 16:10:00,
2013-03-10 10:15:00,21.6,18.1,30.22,NNW,327,0.0,0.0,86,0.00,,,0.04,717,Wunderground v.1.15,2013-03-10 16:15:00,
2013-03-10 10:20:00,21.9,18.6,30.22,NNW,327,0.0,0.0,87,0.00,,,0.04,744,Wunderground v.1.15,2013-03-10 16:20:00,
2013-03-10 10:25:00,21.9,18.4,30.22,NNW,327,0.0,0.0,86,0.00,,,0.04,735,Wunderground v.1.15,2013-03-10 16:25:00,
2013-03-10 10:30:00,22.2,18.9,30.22,NNW,327,0.0,0.0,87,0.00,,,0.04,640,Wunderground v.1.15,2013-03-10 16:30:00,
2013-03-10 10:35:00,22.9,19.6,30.22,NNW,327,0.0,0.0,87,0.00,,,0.04,680,Wunderground v.1.15,2013-03-10 16:35:00,
2013-03-10 10:40:00,23.6,20.6,30.22,NNW,327,0.0,0.0,88,0.00,,,0.05,656,Wunderground v.1.15,2013-03-10 16:40:00,
2013-03-10 10:46:00,24.7,21.7,30.22,NNW,327,0.0,0.0,88,0.00,,,0.05,584,Wunderground v.1.15,2013-03-10 16:46:00,
2013-03-10 10:51:00,25.4,22.1,30.22,NNW,327,0.0,0.0,87,0.00,,,0.05,592,Wunderground v.1.15,2013-03-10 16:51:00,
2013-03-10 10:57:00,26.1,22.5,30.22,NNW,327,0.0,0.0,86,0.00,,,0.06,603,Wunderground v.1.15,2013-03-10 16:57:00,
2013-03-10 11:02:00,26.7,23.1,30.22,NNW,327,0.0,0.0,86,0.00,,,0.06,617,Wunderground v.1.15,2013-03-10 17:02:00,
2013-03-10 11:07:00,27.2,23.6,30.22,NNW,327,0.0,0.0,86,0.00,,,0.06,638,Wunderground v.1.15,2013-03-10 17:07:00,
2013-03-10 11:12:00,27.8,23.9,30.22,NNW,327,0.0,0.0,85,0.00,,,0.06,656,Wunderground v.1.15,2013-03-10 17:12:00,
2013-03-10 11:17:00,28.4,24.5,30.22,NNW,327,0.0,0.0,85,0.00,,,0.06,670,Wunderground v.1.15,2013-03-10 17:17:00,
2013-03-10 11:22:00,28.7,24.8,30.22,NNW,327,0.0,0.0,85,0.00,,,0.06,687,Wunderground v.1.15,2013-03-10 17:22:00,
2013-03-10 11:27:00,29.0,24.8,30.22,NNW,327,0.0,0.0,84,0.00,,,0.06,717,Wunderground v.1.15,2013-03-10 17:27:00,
2013-03-10 11:32:00,29.3,24.8,30.22,NNW,327,0.0,0.0,83,0.00,,,0.06,738,Wunderground v.1.15,2013-03-10 17:32:00,
2013-03-10 11:37:00,29.4,24.6,30.22,NNW,327,0.0,0.0,82,0.00,,,0.07,745,Wunderground v.1.15,2013-03-10 17:37:00,
2013-03-10 11:42:00,29.8,25.0,30.22,NNW,327,0.0,0.0,82,0.00,,,0.07,756,Wunderground v.1.15,2013-03-10 17:42:00,
2013-03-10 11:47:00,30.1,25.0,30.21,NNW,327,0.0,0.0,81,0.00,,,0.07,765,Wunderground v.1.15,2013-03-10 17:47:00,
2013-03-10 11:52:00,30.3,24.6,30.21,NNW,327,0.0,0.0,79,0.00,,,0.07,773,Wunderground v.1.15,2013-03-10 17:52:00,
2013-03-10 11:57:00,29.8,24.1,30.21,NNW,327,0.0,0.0,79,0.00,,,0.07,779,Wunderground v.1.15,2013-03-10 17:57:00,
2013-03-10 12:03:00,29.7,24.0,30.21,NNW,327,0.0,0.0,79,0.00,,,0.07,786,Wunderground v.1.15,2013-03-10 18:03:00,
2013-03-10 12:08:00,29.3,23.9,30.21,NNW,327,0.0,0.0,80,0.00,,,0.07,793,Wunderground v.1.15,2013-03-10 18:08:00,
2013-03-10 12:13:00,28.8,23.1,30.21,NNW,327,0.0,0.0,79,0.00,,,0.07,800,Wunderground v.1.15,2013-03-10 18:13:00,
2013-03-10 12:18:00,28.8,23.1,30.21,NNW,327,0.0,0.0,79,0.00,,,0.07,805,Wunderground v.1.15,2013-03-10 18:18:00,
2013-03-10 12:24:00,29.7,23.4,30.21,NNW,327,0.0,0.0,77,0.00,,,0.07,807,Wunderground v.1.15,2013-03-10 18:24:00,
2013-03-10 12:29:00,30.4,25.0,30.21,NNW,327,0.0,0.0,80,0.00,,,0.07,814,Wunderground v.1.15,2013-03-10 18:29:00,
2013-03-10 12:34:00,30.9,25.2,30.21,NNW,327,0.0,0.0,79,0.00,,,0.08,821,Wunderground v.1.15,2013-03-10 18:34:00,
2013-03-10 12:39:00,31.2,25.4,30.21,NNW,327,0.0,0.0,79,0.00,,,0.08,824,Wunderground v.1.15,2013-03-10 18:39:00,
2013-03-10 12:44:00,31.5,25.7,30.21,NNW,327,0.0,0.0,79,0.00,,,0.08,828,Wunderground v.1.15,2013-03-10 18:44:00,
2013-03-10 12:49:00,31.8,26.0,30.20,NNW,327,0.0,0.0,79,0.00,,,0.08,830,Wunderground v.1.15,2013-03-10 18:49:00,
2013-03-10 12:54:00,31.8,25.7,30.20,SSW,192,0.0,0.0,78,0.00,,,0.08,831,Wunderground v.1.15,2013-03-10 18:54:00,
2013-03-10 12:59:00,31.5,25.4,30.20,SSW,192,0.0,0.0,78,0.00,,,0.08,835,Wunderground v.1.15,2013-03-10 18:59:00,
2013-03-10 13:04:00,31.2,25.1,30.20,SSW,192,0.0,0.0,78,0.00,,,0.08,837,Wunderground v.1.15,2013-03-10 19:04:00,
2013-03-10 13:09:00,31.2,25.4,30.20,SSW,192,0.0,0.0,79,0.00,,,0.08,837,Wunderground v.1.15,2013-03-10 19:09:00,
2013-03-10 13:14:00,31.0,25.2,30.20,SSW,192,8.0,13.0,79,0.00,,,0.08,838,Wunderground v.1.15,2013-03-10 19:14:00,
2013-03-10 13:19:00,30.9,24.8,30.19,SSW,192,8.0,13.0,78,0.00,,,0.08,837,Wunderground v.1.15,2013-03-10 19:19:00,
2013-03-10 13:24:00,30.9,24.8,30.19,SSW,192,8.0,11.0,78,0.00,,,0.08,837,Wunderground v.1.15,2013-03-10 19:24:00,
2013-03-10 13:29:00,30.9,24.5,30.19,SSW,192,8.0,13.0,77,0.00,,,0.08,837,Wunderground v.1.15,2013-03-10 19:29:00,
2013-03-10 13:34:00,31.2,24.8,30.19,SSW,192,11.0,13.0,77,0.00,,,0.08,837,Wunderground v.1.15,2013-03-10 19:34:00,
2013-03-10 13:39:00,31.2,24.8,30.19,SSW,192,10.0,13.0,77,0.00,,,0.08,835,Wunderground v.1.15,2013-03-10 19:39:00,
2013-03-10 13:44:00,31.3,24.6,30.19,SSW,192,11.0,13.0,76,0.00,,,0.08,831,Wunderground v.1.15,2013-03-10 19:44:00,
2013-03-10 13:49:00,31.3,24.9,30.19,SSW,192,12.0,13.0,77,0.00,,,0.08,830,Wunderground v.1.15,2013-03-10 19:49:00,
2013-03-10 13:54:00,31.3,24.3,30.19,SSW,192,10.0,13.0,75,0.00,,,0.08,826,Wunderground v.1.15,2013-03-10 19:54:00,
2013-03-10 13:59:00,31.5,24.8,30.19,SSW,192,12.0,14.0,76,0.00,,,0.08,823,Wunderground v.1.15,2013-03-10 19:59:00,
2013-03-10 14:04:00,31.6,25.2,30.19,South,191,16.0,16.0,77,0.00,,,0.08,819,Wunderground v.1.15,2013-03-10 20:04:00,
2013-03-10 14:09:00,31.8,25.1,30.19,South,191,11.0,16.0,76,0.00,,,0.08,817,Wunderground v.1.15,2013-03-10 20:09:00,
2013-03-10 14:14:00,31.9,25.5,30.19,South,190,11.0,14.0,77,0.00,,,0.08,810,Wunderground v.1.15,2013-03-10 20:14:00,
2013-03-10 14:19:00,32.1,25.4,30.18,South,189,10.0,14.0,76,0.00,,,0.08,805,Wunderground v.1.15,2013-03-10 20:19:00,
2013-03-10 14:24:00,32.2,25.5,30.18,South,189,9.0,13.0,76,0.00,,,0.08,802,Wunderground v.1.15,2013-03-10 20:24:00,
2013-03-10 14:29:00,32.4,25.7,30.18,South,189,10.0,13.0,76,0.00,,,0.08,793,Wunderground v.1.15,2013-03-10 20:29:00,
2013-03-10 14:34:00,32.7,26.3,30.18,South,189,9.0,12.0,77,0.00,,,0.08,788,Wunderground v.1.15,2013-03-10 20:34:00,
2013-03-10 14:39:00,32.8,25.7,30.18,South,189,9.0,12.0,75,0.00,,,0.08,780,Wunderground v.1.15,2013-03-10 20:39:00,
2013-03-10 14:44:00,32.9,25.2,30.18,South,189,6.0,9.0,73,0.00,,,0.08,773,Wunderground v.1.15,2013-03-10 20:44:00,
2013-03-10 14:50:00,33.1,25.1,30.18,South,189,7.0,8.0,72,0.00,,,0.08,766,Wunderground v.1.15,2013-03-10 20:50:00,
2013-03-10 14:55:00,33.4,25.3,30.18,South,189,9.0,9.0,72,0.00,,,0.08,758,Wunderground v.1.15,2013-03-10 20:55:00,
2013-03-10 15:00:00,33.7,26.0,30.18,South,180,8.0,10.0,73,0.00,,,0.08,749,Wunderground v.1.15,2013-03-10 21:00:00,
2013-03-10 15:05:00,33.8,26.1,30.18,South,178,13.0,13.0,73,0.00,,,0.08,742,Wunderground v.1.15,2013-03-10 21:05:00,
2013-03-10 15:10:00,34.1,26.7,30.18,South,176,10.0,11.0,74,0.00,,,0.08,733,Wunderground v.1.15,2013-03-10 21:10:00,
2013-03-10 15:15:00,34.1,26.7,30.18,South,175,11.0,14.0,74,0.00,,,0.08,722,Wunderground v.1.15,2013-03-10 21:15:00,
2013-03-10 15:20:00,34.1,26.3,30.18,South,172,11.0,11.0,73,0.00,,,0.08,712,Wunderground v.1.15,2013-03-10 21:20:00,
2013-03-10 15:26:00,34.0,26.3,30.18,SSE,168,12.0,14.0,73,0.00,,,0.08,700,Wunderground v.1.15,2013-03-10 21:26:00,
2013-03-10 15:31:00,34.0,26.6,30.18,SSE,168,11.0,13.0,74,0.00,,,0.08,689,Wunderground v.1.15,2013-03-10 21:31:00,
2013-03-10 15:37:00,34.0,25.9,30.18,SSE,168,13.0,14.0,72,0.00,,,0.08,677,Wunderground v.1.15,2013-03-10 21:37:00,
2013-03-10 15:42:00,34.1,26.0,30.18,SSE,168,12.0,12.0,72,0.00,,,0.08,663,Wunderground v.1.15,2013-03-10 21:42:00,
2013-03-10 15:47:00,34.1,25.7,30.18,SSE,168,11.0,12.0,71,0.00,,,0.08,652,Wunderground v.1.15,2013-03-10 21:47:00,
2013-03-10 15:53:00,34.3,25.9,30.18,SSE,168,14.0,14.0,71,0.00,,,0.08,638,Wunderground v.1.15,2013-03-10 21:53:00,
2013-03-10 15:58:00,34.3,25.5,30.18,SSE,166,14.0,15.0,70,0.00,,,0.08,624,Wunderground v.1.15,2013-03-10 21:58:00,
2013-03-10 16:04:00,34.4,26.0,30.18,SSE,165,10.0,12.0,71,0.00,,,0.08,608,Wunderground v.1.15,2013-03-10 22:04:00,
2013-03-10 16:09:00,34.6,25.8,30.18,SSE,165,14.0,14.0,70,0.00,,,0.08,596,Wunderground v.1.15,2013-03-10 22:09:00,
2013-03-10 16:14:00,34.6,26.2,30.18,SSE,164,9.0,14.0,71,0.00,,,0.08,580,Wunderground v.1.15,2013-03-10 22:14:00,
2013-03-10 16:19:00,34.4,26.3,30.18,SSE,157,15.0,19.0,72,0.00,,,0.08,566,Wunderground v.1.15,2013-03-10 22:19:00,
2013-03-10 16:24:00,34.4,26.6,30.18,SSE,157,12.0,17.0,73,0.00,,,0.08,552,Wunderground v.1.15,2013-03-10 22:24:00,
2013-03-10 16:29:00,34.4,26.6,30.18,SSE,157,13.0,17.0,73,0.00,,,0.08,536,Wunderground v.1.15,2013-03-10 22:29:00,
2013-03-10 16:34:00,34.6,26.5,30.18,SSE,157,13.0,14.0,72,0.00,,,0.08,522,Wunderground v.1.15,2013-03-10 22:34:00,
2013-03-10 16:39:00,34.6,26.5,30.18,SSE,157,13.0,14.0,72,0.00,,,0.08,508,Wunderground v.1.15,2013-03-10 22:39:00,
2013-03-10 16:44:00,34.4,26.3,30.18,SSE,157,13.0,15.0,72,0.00,,,0.08,490,Wunderground v.1.15,2013-03-10 22:44:00,
2013-03-10 16:49:00,34.4,26.6,30.18,SSE,157,15.0,15.0,73,0.00,,,0.08,476,Wunderground v.1.15,2013-03-10 22:49:00,
2013-03-10 16:54:00,34.6,26.8,30.18,SSE,157,10.0,14.0,73,0.00,,,0.08,462,Wunderground v.1.15,2013-03-10 22:54:00,
2013-03-10 16:59:00,34.6,26.2,30.18,SSE,157,12.0,14.0,71,0.00,,,0.08,450,Wunderground v.1.15,2013-03-10 22:59:00,
2013-03-10 17:04:00,34.4,26.0,30.18,SSE,157,10.0,13.0,71,0.00,,,0.08,431,Wunderground v.1.15,2013-03-10 23:04:00,
2013-03-10 17:09:00,34.3,25.5,30.18,SSE,157,7.0,13.0,70,0.00,,,0.08,415,Wunderground v.1.15,2013-03-10 23:09:00,
2013-03-10 17:14:00,34.3,25.5,30.18,SSE,157,9.0,12.0,70,0.00,,,0.08,399,Wunderground v.1.15,2013-03-10 23:14:00,
2013-03-10 17:19:00,34.3,25.5,30.19,SSE,157,8.0,12.0,70,0.00,,,0.08,385,Wunderground v.1.15,2013-03-10 23:19:00,
2013-03-10 17:24:00,34.1,25.3,30.19,SSE,157,13.0,13.0,70,0.00,,,0.08,366,Wunderground v.1.15,2013-03-10 23:24:00,
2013-03-10 17:29:00,34.1,25.7,30.19,SSE,157,10.0,14.0,71,0.00,,,0.08,350,Wunderground v.1.15,2013-03-10 23:29:00,
2013-03-10 17:34:00,34.1,25.7,30.18,SSE,157,14.0,14.0,71,0.00,,,0.08,334,Wunderground v.1.15,2013-03-10 23:34:00,
2013-03-10 17:39:00,34.0,25.2,30.18,SSE,157,12.0,16.0,70,0.00,,,0.08,318,Wunderground v.1.15,2013-03-10 23:39:00,
2013-03-10 17:44:00,33.8,25.4,30.18,SSE,157,12.0,15.0,71,0.00,,,0.08,301,Wunderground v.1.15,2013-03-10 23:44:00,
2013-03-10 17:49:00,33.7,25.0,30.19,SSE,157,12.0,15.0,70,0.00,,,0.08,283,Wunderground v.1.15,2013-03-10 23:49:00,
2013-03-10 17:54:00,33.2,24.1,30.19,SSE,158,10.0,15.0,69,0.00,,,0.08,264,Wunderground v.1.15,2013-03-10 23:54:00,
2013-03-10 17:59:00,32.9,23.8,30.19,SSE,158,8.0,15.0,69,0.00,,,0.08,244,Wunderground v.1.15,2013-03-10 23:59:00,
2013-03-10 18:04:00,32.7,23.3,30.20,SSE,158,8.0,14.0,68,0.00,,,0.08,227,Wunderground v.1.15,2013-03-11 00:04:00,
2013-03-10 18:09:00,32.2,22.8,30.20,SSE,158,13.0,16.0,68,0.00,,,0.08,209,Wunderground v.1.15,2013-03-11 00:09:00,
2013-03-10 18:14:00,32.1,23.1,30.20,SSE,158,7.0,14.0,69,0.00,,,0.08,195,Wunderground v.1.15,2013-03-11 00:14:00,
2013-03-10 18:19:00,31.8,22.8,30.20,SSE,158,10.0,14.0,69,0.00,,,0.08,176,Wunderground v.1.15,2013-03-11 00:19:00,
2013-03-10 18:24:00,31.6,22.6,30.20,SSE,158,9.0,12.0,69,0.00,,,0.08,158,Wunderground v.1.15,2013-03-11 00:24:00,
2013-03-10 18:29:00,31.3,22.3,30.20,SSE,158,9.0,12.0,69,0.00,,,0.08,139,Wunderground v.1.15,2013-03-11 00:29:00,
2013-03-10 18:34:00,31.0,22.4,30.20,SSE,158,7.0,13.0,70,0.00,,,0.08,102,Wunderground v.1.15,2013-03-11 00:34:00,
2013-03-10 18:39:00,30.9,22.9,30.20,SSE,158,9.0,13.0,72,0.00,,,0.08,84,Wunderground v.1.15,2013-03-11 00:39:00,
2013-03-10 18:44:00,30.7,22.4,30.21,SSE,158,9.0,12.0,71,0.00,,,0.08,30,Wunderground v.1.15,2013-03-11 00:44:00,
2013-03-10 18:50:00,30.4,22.1,30.21,SSE,158,9.0,9.0,71,0.00,,,0.08,21,Wunderground v.1.15,2013-03-11 00:50:00,
2013-03-10 18:55:00,30.1,21.8,30.21,SSE,158,9.0,10.0,71,0.00,,,0.08,12,Wunderground v.1.15,2013-03-11 00:55:00,
2013-03-10 19:00:00,30.0,22.1,30.22,SSE,158,7.0,8.0,72,0.00,,,0.08,11,Wunderground v.1.15,2013-03-11 01:00:00,
2013-03-10 19:05:00,29.7,22.1,30.22,SSE,158,6.0,8.0,73,0.00,,,0.08,7,Wunderground v.1.15,2013-03-11 01:05:00,
2013-03-10 19:10:00,29.4,22.1,30.22,SSE,158,5.0,6.0,74,0.00,,,0.08,5,Wunderground v.1.15,2013-03-11 01:10:00,
2013-03-10 19:15:00,29.1,21.8,30.22,SSE,158,5.0,6.0,74,0.00,,,0.08,0,Wunderground v.1.15,2013-03-11 01:15:00,
2013-03-10 19:20:00,28.8,21.6,30.22,SSE,158,5.0,5.0,74,0.00,,,0.08,0,Wunderground v.1.15,2013-03-11 01:20:00,
2013-03-10 19:25:00,28.5,21.3,30.22,SSE,158,0.0,5.0,74,0.00,,,0.08,0,Wunderground v.1.15,2013-03-11 01:25:00,
2013-03-10 19:30:00,28.2,21.3,30.22,SSE,158,0.0,2.0,75,0.00,,,0.08,0,Wunderground v.1.15,2013-03-11 01:30:00,
2013-03-10 19:36:00,27.9,21.0,30.22,SSE,158,0.0,2.0,75,0.00,,,0.08,0,Wunderground v.1.15,2013-03-11 01:36:00,
2013-03-10 19:41:00,27.6,20.7,30.22,SSE,158,0.0,0.0,75,0.00,,,0.08,0,Wunderground v.1.15,2013-03-11 01:41:00,
2013-03-10 19:47:00,27.2,20.6,30.24,SSE,158,0.0,0.0,76,0.00,,,0.08,0,Wunderground v.1.15,2013-03-11 01:47:00,
2013-03-10 19:52:00,27.0,20.7,30.24,SSE,158,0.0,0.0,77,0.00,,,0.08,0,Wunderground v.1.15,2013-03-11 01:52:00,
2013-03-10 19:57:00,26.7,20.5,30.24,SSE,158,0.0,0.0,77,0.00,,,0.08,0,Wunderground v.1.15,2013-03-11 01:57:00,
2013-03-10 20:03:00,26.4,20.5,30.25,SSE,158,0.0,0.0,78,0.00,,,0.08,0,Wunderground v.1.15,2013-03-11 02:03:00,
2013-03-10 20:08:00,26.1,20.2,30.25,SSE,158,0.0,0.0,78,0.00,,,0.08,0,Wunderground v.1.15,2013-03-11 02:08:00,
2013-03-10 20:13:00,26.0,20.1,30.25,SSE,158,0.0,0.0,78,0.00,,,0.08,0,Wunderground v.1.15,2013-03-11 02:13:00,
2013-03-10 20:18:00,25.7,19.8,30.25,SSE,158,0.0,0.0,78,0.00,,,0.08,0,Wunderground v.1.15,2013-03-11 02:18:00,
2013-03-10 20:24:00,25.6,19.7,30.25,SSE,158,0.0,0.0,78,0.00,,,0.08,0,Wunderground v.1.15,2013-03-11 02:24:00,
2013-03-10 20:29:00,25.3,19.4,30.25,SSE,158,0.0,0.0,78,0.00,,,0.08,0,Wunderground v.1.15,2013-03-11 02:29:00,
2013-03-10 20:34:00,25.1,19.2,30.26,SSE,158,0.0,0.0,78,0.00,,,0.08,0,Wunderground v.1.15,2013-03-11 02:34:00,
2013-03-10 20:39:00,24.8,18.9,30.26,SSE,158,0.0,0.0,78,0.00,,,0.08,0,Wunderground v.1.15,2013-03-11 02:39:00,
2013-03-10 20:44:00,24.7,19.1,30.26,SSE,158,0.0,0.0,79,0.00,,,0.08,0,Wunderground v.1.15,2013-03-11 02:44:00,
2013-03-10 20:49:00,24.5,18.9,30.26,SSE,158,0.0,0.0,79,0.00,,,0.08,0,Wunderground v.1.15,2013-03-11 02:49:00,
2013-03-10 20:54:00,24.4,19.1,30.26,SSE,158,0.0,0.0,80,0.00,,,0.08,0,Wunderground v.1.15,2013-03-11 02:54:00,
2013-03-10 20:59:00,24.1,18.8,30.26,SSE,158,0.0,0.0,80,0.00,,,0.08,0,Wunderground v.1.15,2013-03-11 02:59:00,
2013-03-10 21:04:00,24.1,19.1,30.26,SSE,158,0.0,6.0,81,0.00,,,0.08,0,Wunderground v.1.15,2013-03-11 03:04:00,
2013-03-10 21:09:00,23.9,18.9,30.26,SSE,158,0.0,6.0,81,0.00,,,0.08,0,Wunderground v.1.15,2013-03-11 03:09:00,
2013-03-10 21:14:00,23.9,19.2,30.26,SSE,158,0.0,1.0,82,0.00,,,0.08,0,Wunderground v.1.15,2013-03-11 03:14:00,
2013-03-10 21:19:00,23.8,19.1,30.27,SSE,158,0.0,1.0,82,0.00,,,0.08,0,Wunderground v.1.15,2013-03-11 03:19:00,
2013-03-10 21:24:00,23.6,18.9,30.27,SSE,158,0.0,0.0,82,0.00,,,0.08,0,Wunderground v.1.15,2013-03-11 03:24:00,
2013-03-10 21:29:00,23.5,18.5,30.26,SSE,158,0.0,0.0,81,0.00,,,0.08,0,Wunderground v.1.15,2013-03-11 03:29:00,
2013-03-10 21:34:00,23.3,18.3,30.26,SSE,158,0.0,0.0,81,0.00,,,0.08,0,Wunderground v.1.15,2013-03-11 03:34:00,
2013-03-10 21:39:00,23.0,18.0,30.26,SSE,158,4.0,4.0,81,0.00,,,0.08,0,Wunderground v.1.15,2013-03-11 03:39:00,
2013-03-10 21:44:00,22.9,17.9,30.27,SSE,158,4.0,5.0,81,0.00,,,0.08,0,Wunderground v.1.15,2013-03-11 03:44:00,
2013-03-10 21:49:00,22.5,17.5,30.27,SSE,158,8.0,8.0,81,0.00,,,0.08,0,Wunderground v.1.15,2013-03-11 03:49:00,
2013-03-10 21:54:00,22.4,17.5,30.27,SSE,158,9.0,9.0,81,0.00,,,0.08,0,Wunderground v.1.15,2013-03-11 03:54:00,
2013-03-10 21:59:00,22.1,17.2,30.28,SSE,158,9.0,9.0,81,0.00,,,0.08,0,Wunderground v.1.15,2013-03-11 03:59:00,
2013-03-10 22:00:00,22.1,17.2,30.28,SSE,158,8.0,8.0,81,0.00,,,0.08,0,Wunderground v.1.15,2013-03-11 04:00:00,
2013-03-10 22:05:00,21.9,17.0,30.28,SSE,158,8.0,8.0,81,0.00,,,0.08,0,Wunderground v.1.15,2013-03-11 04:05:00,
2013-03-10 22:10:00,21.8,17.2,30.28,SSE,158,9.0,10.0,82,0.00,,,0.08,0,Wunderground v.1.15,2013-03-11 04:10:00,
2013-03-10 22:16:00,21.6,17.0,30.28,SSE,158,5.0,10.0,82,0.00,,,0.08,0,Wunderground v.1.15,2013-03-11 04:16:00,
2013-03-10 22:21:00,21.4,16.8,30.28,SSE,158,0.0,7.0,82,0.00,,,0.08,0,Wunderground v.1.15,2013-03-11 04:21:00,
2013-03-10 22:27:00,21.3,16.7,30.28,SSE,158,0.0,7.0,82,0.00,,,0.08,0,Wunderground v.1.15,2013-03-11 04:27:00,
2013-03-10 22:33:00,21.1,16.7,30.29,SSE,158,0.0,1.0,83,0.00,,,0.08,0,Wunderground v.1.15,2013-03-11 04:33:00,
2013-03-10 22:38:00,21.0,16.6,30.29,SSE,158,0.0,1.0,83,0.00,,,0.08,0,Wunderground v.1.15,2013-03-11 04:38:00,
2013-03-10 22:43:00,21.0,16.6,30.29,SSE,158,0.0,0.0,83,0.00,,,0.08,0,Wunderground v.1.15,2013-03-11 04:43:00,
2013-03-10 22:48:00,21.0,16.9,30.29,SSE,158,0.0,0.0,84,0.00,,,0.08,0,Wunderground v.1.15,2013-03-11 04:48:00,
2013-03-10 22:53:00,21.0,16.9,30.29,SSE,158,0.0,0.0,84,0.00,,,0.08,0,Wunderground v.1.15,2013-03-11 04:53:00,
2013-03-10 22:58:00,20.8,16.7,30.29,SSE,158,0.0,0.0,84,0.00,,,0.08,0,Wunderground v.1.15,2013-03-11 04:58:00,
2013-03-10 23:04:00,20.8,16.7,30.29,SSE,158,0.0,0.0,84,0.00,,,0.08,0,Wunderground v.1.15,2013-03-11 05:04:00,
2013-03-10 23:09:00,20.6,16.5,30.29,SSE,158,5.0,7.0,84,0.00,,,0.08,0,Wunderground v.1.15,2013-03-11 05:09:00,
2013-03-10 23:14:00,20.6,16.5,30.29,SSE,158,0.0,5.0,84,0.00,,,0.08,0,Wunderground v.1.15,2013-03-11 05:14:00,
2013-03-10 23:19:00,20.5,16.4,30.31,SSE,158,0.0,5.0,84,0.00,,,0.08,0,Wunderground v.1.15,2013-03-11 05:19:00,
2013-03-10 23:24:00,20.5,16.4,30.31,SSE,158,0.0,1.0,84,0.00,,,0.08,0,Wunderground v.1.15,2013-03-11 05:24:00,
2013-03-10 23:29:00,20.5,16.4,30.31,SSE,158,0.0,1.0,84,0.00,,,0.08,0,Wunderground v.1.15,2013-03-11 05:29:00,
2013-03-10 23:34:00,20.3,16.2,30.31,SSE,158,0.0,0.0,84,0.00,,,0.08,0,Wunderground v.1.15,2013-03-11 05:34:00,
2013-03-10 23:39:00,20.3,16.2,30.31,SSE,158,0.0,0.0,84,0.00,,,0.08,0,Wunderground v.1.15,2013-03-11 05:39:00,
2013-03-10 23:44:00,20.3,16.2,30.31,SSE,158,0.0,0.0,84,0.00,,,0.08,0,Wunderground v.1.15,2013-03-11 05:44:00,
2013-03-10 23:49:00,20.3,16.5,30.32,SSE,158,0.0,0.0,85,0.00,,,0.08,0,Wunderground v.1.15,2013-03-11 05:49:00,
2013-03-10 23:54:00,20.3,16.5,30.32,SSE,158,0.0,0.0,85,0.00,,,0.08,0,Wunderground v.1.15,2013-03-11 05:54:00,
2013-03-10 23:59:00,20.3,16.5,30.32,SSE,158,0.0,0.0,85,0.00,,,0.08,0,Wunderground v.1.15,2013-03-11 05:59:00,